createdAt,value
2023-04-16T00:00:21.432Z,70.14
2023-04-16T00:02:48.091Z,68.79
2023-04-16T00:05:15.776Z,67.61
2023-04-16T00:07:42.364Z,68.21
2023-04-16T00:10:08.916Z,68.88
2023-04-16T00:12:35.409Z,68.58
2023-04-16T00:15:02.458Z,65.52
2023-04-16T00:17:29.055Z,63.11
2023-04-16T00:19:55.745Z,62.46
2023-04-16T00:22:22.371Z,60.89
2023-04-16T00:24:48.907Z,60.69
2023-04-16T00:27:15.443Z,59.92
2023-04-16T00:29:42.195Z,59.95
2023-04-16T00:32:08.770Z,62.91
2023-04-16T00:34:35.276Z,65.46
2023-04-16T00:37:01.861Z,65.56
2023-04-16T00:39:28.475Z,65.15
2023-04-16T00:41:55.137Z,62.63
2023-04-16T00:44:21.670Z,61.60
2023-04-16T00:46:48.342Z,60.68
2023-04-16T00:49:15.246Z,59.65
2023-04-16T00:51:42.124Z,59.77
2023-04-16T00:54:08.684Z,60.99
2023-04-16T00:56:35.513Z,62.53
2023-04-16T00:59:03.079Z,62.88
2023-04-16T01:01:29.734Z,64.16
2023-04-16T01:03:56.709Z,64.27
2023-04-16T01:06:23.350Z,64.90
2023-04-16T01:08:49.853Z,65.09
2023-04-16T01:11:16.436Z,63.56
2023-04-16T01:13:43.177Z,61.58
2023-04-16T01:16:09.766Z,60.99
2023-04-16T01:18:36.391Z,60.00
2023-04-16T01:21:02.954Z,59.19
2023-04-16T01:23:29.530Z,59.36
2023-04-16T01:25:56.182Z,59.41
2023-04-16T01:28:23.037Z,58.79
2023-04-16T01:30:49.896Z,58.89
2023-04-16T01:33:16.371Z,58.87
2023-04-16T01:35:45.652Z,58.46
2023-04-16T01:38:12.415Z,59.19
2023-04-16T01:40:40.052Z,59.55
2023-04-16T01:43:06.674Z,58.44
2023-04-16T01:45:33.259Z,59.23
2023-04-16T01:47:59.819Z,59.03
2023-04-16T01:50:26.631Z,58.87
2023-04-16T01:52:53.203Z,58.20
2023-04-16T01:55:19.786Z,59.78
2023-04-16T01:57:46.306Z,59.59
2023-04-16T02:00:13.149Z,59.20
2023-04-16T02:02:39.846Z,58.43
2023-04-16T02:05:06.438Z,58.59
2023-04-16T02:07:32.944Z,58.09
2023-04-16T02:10:00.213Z,58.74
2023-04-16T02:12:27.104Z,57.68
2023-04-16T02:14:53.598Z,57.83
2023-04-16T02:17:22.043Z,57.98
2023-04-16T02:19:48.599Z,58.07
2023-04-16T02:22:16.305Z,58.59
2023-04-16T02:24:42.847Z,58.49
2023-04-16T02:27:10.818Z,58.16
2023-04-16T02:29:37.397Z,58.35
2023-04-16T02:32:04.295Z,58.67
2023-04-16T02:34:30.784Z,59.41
2023-04-16T02:36:57.341Z,59.50
2023-04-16T02:39:23.943Z,60.61
2023-04-16T02:44:45.758Z,60.79
2023-04-16T02:47:12.310Z,61.62
2023-04-16T02:49:38.964Z,59.58
2023-04-16T02:52:07.952Z,59.16
2023-04-16T02:54:34.544Z,58.83
2023-04-16T02:57:07.188Z,59.78
2023-04-16T02:59:34.736Z,59.77
2023-04-16T03:02:01.287Z,60.03
2023-04-16T03:04:28.108Z,61.60
2023-04-16T03:06:54.699Z,61.37
2023-04-16T03:09:21.248Z,62.33
2023-04-16T03:11:48.092Z,61.99
2023-04-16T03:14:15.978Z,61.05
2023-04-16T03:16:42.546Z,60.84
2023-04-16T03:19:09.303Z,61.15
2023-04-16T03:21:38.469Z,60.90
2023-04-16T03:24:05.009Z,60.97
2023-04-16T03:26:32.287Z,60.25
2023-04-16T03:28:58.838Z,60.29
2023-04-16T03:31:25.454Z,60.20
2023-04-16T03:33:53.095Z,59.95
2023-04-16T03:36:20.355Z,61.00
2023-04-16T03:38:46.975Z,62.37
2023-04-16T03:41:16.396Z,60.66
2023-04-16T03:43:43.000Z,60.36
2023-04-16T03:46:09.552Z,59.95
2023-04-16T03:48:36.431Z,59.81
2023-04-16T03:51:02.962Z,59.67
2023-04-16T03:53:29.538Z,59.29
2023-04-16T03:55:56.091Z,59.19
2023-04-16T03:58:22.877Z,58.24
2023-04-16T04:00:49.816Z,58.29
2023-04-16T04:03:16.702Z,58.03
2023-04-16T04:05:43.507Z,58.40
2023-04-16T04:08:11.801Z,57.95
2023-04-16T04:10:38.462Z,57.79
2023-04-16T04:13:05.054Z,58.69
2023-04-16T04:15:33.789Z,58.95
2023-04-16T04:18:00.376Z,58.83
2023-04-16T04:20:26.985Z,58.51
2023-04-16T04:22:53.806Z,58.87
2023-04-16T04:25:20.354Z,59.45
2023-04-16T04:27:46.921Z,58.46
2023-04-16T04:30:13.359Z,58.98
2023-04-16T04:32:40.660Z,58.54
2023-04-16T04:35:07.206Z,59.34
2023-04-16T04:37:33.951Z,60.03
2023-04-16T04:40:01.337Z,59.77
2023-04-16T04:42:27.937Z,58.92
2023-04-16T04:44:54.395Z,58.69
2023-04-16T04:47:21.194Z,58.55
2023-04-16T04:49:48.571Z,58.40
2023-04-16T04:52:15.128Z,58.19
2023-04-16T04:54:41.907Z,58.61
2023-04-16T04:57:08.467Z,58.77
2023-04-16T04:59:37.222Z,59.00
2023-04-16T05:02:03.829Z,60.96
2023-04-16T05:04:30.630Z,59.82
2023-04-16T05:06:57.145Z,58.69
2023-04-16T05:09:23.729Z,58.42
2023-04-16T05:14:52.908Z,59.75
2023-04-16T05:17:19.589Z,59.92
2023-04-16T05:19:47.166Z,59.23
2023-04-16T05:22:13.867Z,59.29
2023-04-16T05:24:42.622Z,59.99
2023-04-16T05:27:09.190Z,60.73
2023-04-16T05:29:35.751Z,59.94
2023-04-16T05:32:02.671Z,59.23
2023-04-16T05:34:29.130Z,58.70
2023-04-16T05:36:55.696Z,59.11
2023-04-16T05:39:23.527Z,59.38
2023-04-16T05:41:50.061Z,58.86
2023-04-16T05:44:16.911Z,58.43
2023-04-16T05:46:45.482Z,57.93
2023-04-16T05:49:12.873Z,58.03
2023-04-16T05:51:40.123Z,57.92
2023-04-16T05:54:06.858Z,57.66
2023-04-16T05:56:35.851Z,57.31
2023-04-16T05:59:03.206Z,58.02
2023-04-16T06:01:29.899Z,57.34
2023-04-16T06:03:56.895Z,57.38
2023-04-16T06:06:23.728Z,57.33
2023-04-16T06:08:50.335Z,58.19
2023-04-16T06:11:17.193Z,58.23
2023-04-16T06:13:43.757Z,58.21
2023-04-16T06:16:10.358Z,58.14
2023-04-16T06:18:46.870Z,57.92
2023-04-16T06:21:13.476Z,58.99
2023-04-16T06:23:39.954Z,59.63
2023-04-16T06:26:06.729Z,60.36
2023-04-16T06:28:33.238Z,58.94
2023-04-16T06:31:00.113Z,58.09
2023-04-16T06:33:26.950Z,57.29
2023-04-16T06:35:54.568Z,56.79
2023-04-16T06:38:21.161Z,57.32
2023-04-16T06:40:47.689Z,57.30
2023-04-16T06:43:14.263Z,58.60
2023-04-16T06:45:40.863Z,59.03
2023-04-16T06:48:10.370Z,58.07
2023-04-16T06:50:39.409Z,58.21
2023-04-16T06:53:06.108Z,57.78
2023-04-16T06:55:32.859Z,58.47
2023-04-16T06:57:59.708Z,58.12
2023-04-16T07:00:26.253Z,58.03
2023-04-16T07:02:57.090Z,58.14
2023-04-16T07:05:25.153Z,59.25
2023-04-16T07:07:51.684Z,59.07
2023-04-16T07:10:20.476Z,59.11
2023-04-16T07:12:49.220Z,58.08
2023-04-16T07:15:15.763Z,59.41
2023-04-16T07:17:44.712Z,58.67
2023-04-16T07:20:11.601Z,59.38
2023-04-16T07:22:38.447Z,59.44
2023-04-16T07:25:04.913Z,59.83
2023-04-16T07:27:32.130Z,59.08
2023-04-16T07:29:58.997Z,58.91
2023-04-16T07:32:28.066Z,59.69
2023-04-16T07:34:54.955Z,58.00
2023-04-16T07:37:21.771Z,57.35
2023-04-16T07:39:48.583Z,57.63
2023-04-16T07:44:59.299Z,57.27
2023-04-16T07:47:25.849Z,57.52
2023-04-16T07:49:52.668Z,57.56
2023-04-16T07:52:19.155Z,57.36
2023-04-16T07:54:45.864Z,57.16
2023-04-16T07:57:12.724Z,58.22
2023-04-16T07:59:40.237Z,56.92
2023-04-16T08:02:07.123Z,56.88
2023-04-16T08:04:34.181Z,55.94
2023-04-16T08:07:00.860Z,55.91
2023-04-16T08:09:27.428Z,57.45
2023-04-16T08:11:54.222Z,57.74
2023-04-16T08:14:20.852Z,57.16
2023-04-16T08:16:48.416Z,56.73
2023-04-16T08:19:15.066Z,56.04
2023-04-16T08:21:41.592Z,55.93
2023-04-16T08:24:08.471Z,55.75
2023-04-16T08:26:36.012Z,55.79
2023-04-16T08:29:02.615Z,55.90
2023-04-16T08:31:29.428Z,58.27
2023-04-16T08:33:56.397Z,58.18
2023-04-16T08:36:23.009Z,56.88
2023-04-16T08:38:49.762Z,56.50
2023-04-16T08:41:16.524Z,55.35
2023-04-16T08:43:44.089Z,55.80
2023-04-16T08:46:12.511Z,56.07
2023-04-16T08:48:39.070Z,56.09
2023-04-16T08:51:05.872Z,56.25
2023-04-16T08:53:32.695Z,55.02
2023-04-16T08:55:59.282Z,55.13
2023-04-16T08:58:26.501Z,54.74
2023-04-16T09:00:53.013Z,54.18
2023-04-16T09:03:20.116Z,54.88
2023-04-16T09:05:46.785Z,53.90
2023-04-16T09:08:13.295Z,54.70
2023-04-16T09:10:40.120Z,55.76
2023-04-16T09:13:06.716Z,57.09
2023-04-16T09:15:35.001Z,58.02
2023-04-16T09:18:01.803Z,57.63
2023-04-16T09:20:28.678Z,57.05
2023-04-16T09:22:57.363Z,57.34
2023-04-16T09:25:24.200Z,57.78
2023-04-16T09:27:50.665Z,58.54
2023-04-16T09:30:18.193Z,58.18
2023-04-16T09:32:44.748Z,57.39
2023-04-16T09:35:11.260Z,55.98
2023-04-16T09:37:37.857Z,55.83
2023-04-16T09:40:04.465Z,54.38
2023-04-16T09:42:31.093Z,54.25
2023-04-16T09:45:00.322Z,53.31
2023-04-16T09:47:32.930Z,54.43
2023-04-16T09:49:59.804Z,55.64
2023-04-16T09:52:29.010Z,54.40
2023-04-16T09:54:55.791Z,54.27
2023-04-16T09:57:22.605Z,55.43
2023-04-16T09:59:49.932Z,56.47
2023-04-16T10:02:16.739Z,57.01
2023-04-16T10:04:43.816Z,56.05
2023-04-16T10:07:10.399Z,54.95
2023-04-16T10:09:37.013Z,53.90
2023-04-16T10:12:03.897Z,55.18
2023-04-16T10:14:32.198Z,54.06
2023-04-16T10:16:58.806Z,52.51
2023-04-16T10:19:26.049Z,52.93
2023-04-16T10:21:54.954Z,52.31
2023-04-16T10:24:21.776Z,52.86
2023-04-16T10:26:48.199Z,52.61
2023-04-16T10:29:14.996Z,52.60
2023-04-16T10:31:42.314Z,52.36
2023-04-16T10:34:10.824Z,51.51
2023-04-16T10:36:37.431Z,53.05
2023-04-16T10:39:04.237Z,53.30
2023-04-16T10:41:30.815Z,53.72
2023-04-16T10:44:00.180Z,53.34
2023-04-16T10:46:26.927Z,52.57
2023-04-16T10:48:53.916Z,52.45
2023-04-16T10:51:20.554Z,52.23
2023-04-16T10:53:47.286Z,54.22
2023-04-16T10:56:13.858Z,54.02
2023-04-16T10:58:40.461Z,53.89
2023-04-16T11:01:07.225Z,54.44
2023-04-16T11:03:34.117Z,54.09
2023-04-16T11:06:00.815Z,53.02
2023-04-16T11:08:27.595Z,51.87
2023-04-16T11:10:55.839Z,51.48
2023-04-16T11:13:22.419Z,52.43
2023-04-16T11:15:49.824Z,52.19
2023-04-16T11:18:16.471Z,52.64
2023-04-16T11:20:45.515Z,52.48
2023-04-16T11:23:12.161Z,52.63
2023-04-16T11:25:39.658Z,52.31
2023-04-16T11:28:06.271Z,52.21
2023-04-16T11:30:33.180Z,51.54
2023-04-16T11:33:02.193Z,51.48
2023-04-16T11:35:28.803Z,50.71
2023-04-16T11:37:57.752Z,52.94
2023-04-16T11:40:24.343Z,52.21
2023-04-16T11:42:51.098Z,52.34
2023-04-16T11:45:19.992Z,51.65
2023-04-16T11:47:46.615Z,50.31
2023-04-16T11:50:13.178Z,50.24
2023-04-16T11:52:39.792Z,52.47
2023-04-16T11:55:08.836Z,51.14
2023-04-16T11:57:35.371Z,49.90
2023-04-16T12:00:03.942Z,50.23
2023-04-16T12:02:32.747Z,50.04
2023-04-16T12:04:59.690Z,49.23
2023-04-16T12:07:26.266Z,48.71
2023-04-16T12:09:52.729Z,49.55
2023-04-16T12:12:22.055Z,49.15
2023-04-16T12:14:48.511Z,48.79
2023-04-16T12:17:15.130Z,47.92
2023-04-16T12:19:42.047Z,48.39
2023-04-16T12:22:08.770Z,48.33
2023-04-16T12:24:35.307Z,49.79
2023-04-16T12:29:33.049Z,47.82
2023-04-16T12:32:02.093Z,47.82
2023-04-16T12:34:48.857Z,47.13
2023-04-16T12:37:15.685Z,47.40
2023-04-16T12:39:43.328Z,46.92
2023-04-16T12:42:10.597Z,46.64
2023-04-16T12:44:37.235Z,49.65
2023-04-16T12:47:04.785Z,50.81
2023-04-16T12:49:32.336Z,50.61
2023-04-16T12:51:59.617Z,50.30
2023-04-16T12:54:27.856Z,50.07
2023-04-16T12:56:54.682Z,49.69
2023-04-16T12:59:23.578Z,48.89
2023-04-16T13:01:50.425Z,48.25
2023-04-16T13:04:17.336Z,48.41
2023-04-16T13:06:46.403Z,47.11
2023-04-16T13:09:13.016Z,47.23
2023-04-16T13:11:39.514Z,46.38
2023-04-16T13:14:06.093Z,46.06
2023-04-16T13:16:32.586Z,45.40
2023-04-16T13:18:59.122Z,45.19
2023-04-16T13:21:25.933Z,45.39
2023-04-16T13:23:52.516Z,46.21
2023-04-16T13:26:18.946Z,46.05
2023-04-16T13:28:46.591Z,46.72
2023-04-16T13:31:13.135Z,45.84
2023-04-16T13:33:39.619Z,46.26
2023-04-16T13:36:06.604Z,46.09
2023-04-16T13:38:33.392Z,46.68
2023-04-16T13:40:59.996Z,48.23
2023-04-16T13:43:26.574Z,48.65
2023-04-16T13:45:53.298Z,48.03
2023-04-16T13:48:19.835Z,48.33
2023-04-16T13:50:47.576Z,47.94
2023-04-16T13:53:14.161Z,48.33
2023-04-16T13:55:40.646Z,47.60
2023-04-16T13:58:14.863Z,47.51
2023-04-16T14:00:41.819Z,48.60
2023-04-16T14:03:08.834Z,47.95
2023-04-16T14:05:35.423Z,47.32
2023-04-16T14:08:02.033Z,47.72
2023-04-16T14:10:28.670Z,47.89
2023-04-16T14:12:55.981Z,48.98
2023-04-16T14:15:22.669Z,48.39
2023-04-16T14:17:50.171Z,49.16
2023-04-16T14:20:16.633Z,49.81
2023-04-16T14:22:43.492Z,51.77
2023-04-16T14:25:10.062Z,52.52
2023-04-16T14:27:36.638Z,51.25
2023-04-16T14:30:03.249Z,50.92
2023-04-16T14:32:29.795Z,49.65
2023-04-16T14:34:56.709Z,51.15
2023-04-16T14:37:23.612Z,53.15
2023-04-16T14:39:52.589Z,54.22
2023-04-16T14:42:19.417Z,54.94
2023-04-16T14:44:46.004Z,59.41
2023-04-16T14:47:16.285Z,58.44
2023-04-16T14:49:43.177Z,57.55
2023-04-16T14:52:10.043Z,58.03
2023-04-16T14:54:37.992Z,57.73
2023-04-16T14:57:07.859Z,59.07
2023-04-16T14:59:34.548Z,58.61
2023-04-16T15:02:01.129Z,56.87
2023-04-16T15:04:28.368Z,55.46
2023-04-16T15:06:55.592Z,56.93
2023-04-16T15:09:22.317Z,55.73
2023-04-16T15:11:48.840Z,53.13
2023-04-16T15:14:15.308Z,53.13
2023-04-16T15:16:41.965Z,51.58
2023-04-16T15:19:09.168Z,51.46
2023-04-16T15:21:35.866Z,50.72
2023-04-16T15:24:04.510Z,49.58
2023-04-16T15:26:31.080Z,48.76
2023-04-16T15:28:57.895Z,51.12
2023-04-16T15:31:24.479Z,52.78
2023-04-16T15:33:51.137Z,51.43
2023-04-16T15:36:20.111Z,50.32
2023-04-16T15:38:46.673Z,49.67
2023-04-16T15:41:13.465Z,49.75
2023-04-16T15:43:40.044Z,52.94
2023-04-16T15:46:06.645Z,54.28
2023-04-16T15:48:33.566Z,53.72
2023-04-16T15:51:00.416Z,55.02
2023-04-16T15:53:27.185Z,54.99
2023-04-16T15:55:54.009Z,54.43
2023-04-16T15:58:20.525Z,54.26
2023-04-16T16:00:47.061Z,53.69
2023-04-16T16:03:13.731Z,54.57
2023-04-16T16:05:40.409Z,54.06
2023-04-16T16:08:08.771Z,56.13
2023-04-16T16:10:35.386Z,56.91
2023-04-16T16:13:01.947Z,57.93
2023-04-16T16:15:29.323Z,57.76
2023-04-16T16:17:55.976Z,59.11
2023-04-16T16:20:22.530Z,59.05
2023-04-16T16:22:49.428Z,58.10
2023-04-16T16:25:15.933Z,58.22
2023-04-16T16:27:42.446Z,56.37
2023-04-16T16:30:10.311Z,55.64
2023-04-16T16:32:37.198Z,54.19
2023-04-16T16:35:03.758Z,54.15
2023-04-16T16:37:30.369Z,54.95
2023-04-16T16:39:57.000Z,55.92
2023-04-16T16:42:23.555Z,57.87
2023-04-16T16:44:50.252Z,59.40
2023-04-16T16:47:17.140Z,59.69
2023-04-16T16:49:44.462Z,58.49
2023-04-16T16:52:11.212Z,58.37
2023-04-16T16:54:38.057Z,58.59
2023-04-16T16:57:05.447Z,56.96
2023-04-16T16:59:33.814Z,56.99
2023-04-16T17:02:00.363Z,55.94
2023-04-16T17:04:29.123Z,59.04
2023-04-16T17:06:55.698Z,59.30
2023-04-16T17:09:22.488Z,59.69
2023-04-16T17:11:49.330Z,58.17
2023-04-16T17:14:15.962Z,60.01
2023-04-16T17:16:42.534Z,59.09
2023-04-16T17:19:09.434Z,58.90
2023-04-16T17:21:36.234Z,59.25
2023-04-16T17:24:03.020Z,60.36
2023-04-16T17:26:29.657Z,60.29
2023-04-16T17:28:56.100Z,56.64
2023-04-16T17:31:23.480Z,54.78
2023-04-16T17:33:51.739Z,54.94
2023-04-16T17:36:18.986Z,52.63
2023-04-16T17:38:45.760Z,52.64
2023-04-16T17:41:14.426Z,52.79
2023-04-16T17:43:40.984Z,54.31
2023-04-16T17:46:09.935Z,55.42
2023-04-16T17:48:36.708Z,54.44
2023-04-16T17:51:03.626Z,52.13
2023-04-16T17:53:30.161Z,52.76
2023-04-16T17:55:57.040Z,52.75
2023-04-16T17:58:23.974Z,50.98
2023-04-16T18:00:51.137Z,50.02
2023-04-16T18:03:19.973Z,49.94
2023-04-16T18:05:48.145Z,48.84
2023-04-16T18:08:16.739Z,50.86
2023-04-16T18:10:45.268Z,50.00
2023-04-16T18:13:11.934Z,49.17
2023-04-16T18:15:38.621Z,48.79
2023-04-16T18:18:05.224Z,49.78
2023-04-16T18:20:34.408Z,50.80
2023-04-16T18:23:01.212Z,53.70
2023-04-16T18:25:34.350Z,53.31
2023-04-16T18:28:01.900Z,52.77
2023-04-16T18:30:28.793Z,52.12
2023-04-16T18:33:19.460Z,51.32
2023-04-16T18:35:41.953Z,51.31
2023-04-16T18:38:08.459Z,51.84
2023-04-16T18:40:35.120Z,52.82
2023-04-16T18:43:01.899Z,51.01
2023-04-16T18:45:34.302Z,51.33
2023-04-16T18:48:01.159Z,53.78
2023-04-16T18:50:27.719Z,56.20
2023-04-16T18:52:54.372Z,57.26
2023-04-16T18:55:21.208Z,55.35
2023-04-16T18:57:48.601Z,53.86
2023-04-16T19:00:17.422Z,54.80
2023-04-16T19:02:44.713Z,53.90
2023-04-16T19:05:11.470Z,54.00
2023-04-16T19:07:38.330Z,52.57
2023-04-16T19:10:05.000Z,52.15
2023-04-16T19:12:34.383Z,51.48
2023-04-16T19:15:01.056Z,50.87
2023-04-16T19:17:27.850Z,51.29
2023-04-16T19:19:54.684Z,51.61
2023-04-16T19:22:21.291Z,52.97
2023-04-16T19:24:47.912Z,51.43
2023-04-16T19:27:14.695Z,51.34
2023-04-16T19:29:41.324Z,53.20
2023-04-16T19:32:08.251Z,52.83
2023-04-16T19:34:35.213Z,51.65
2023-04-16T19:37:02.202Z,51.45
2023-04-16T19:39:28.832Z,52.32
2023-04-16T19:41:56.222Z,52.05
2023-04-16T19:44:22.877Z,52.44
2023-04-16T19:46:49.495Z,52.90
2023-04-16T19:49:16.113Z,52.32
2023-04-16T19:51:42.905Z,52.42
2023-04-16T19:54:09.759Z,53.58
2023-04-16T19:56:36.364Z,54.82
2023-04-16T19:59:03.900Z,53.20
2023-04-16T20:01:30.813Z,54.18
2023-04-16T20:03:59.440Z,54.79
2023-04-16T20:06:26.107Z,56.94
2023-04-16T20:08:52.659Z,55.40
2023-04-16T20:11:21.495Z,54.49
2023-04-16T20:13:52.181Z,54.80
2023-04-16T20:16:18.812Z,54.83
2023-04-16T20:18:45.422Z,54.61
2023-04-16T20:21:12.028Z,55.73
2023-04-16T20:23:39.557Z,54.66
2023-04-16T20:26:06.219Z,53.82
2023-04-16T20:28:32.795Z,52.74
2023-04-16T20:30:59.761Z,52.45
2023-04-16T20:33:26.317Z,52.70
2023-04-16T20:35:53.022Z,53.08
2023-04-16T20:38:19.532Z,53.29
2023-04-16T20:40:46.410Z,55.58
2023-04-16T20:43:13.269Z,53.78
2023-04-16T20:45:40.838Z,53.27
2023-04-16T20:48:07.674Z,53.50
2023-04-16T20:50:34.321Z,54.22
2023-04-16T20:53:00.949Z,54.23
2023-04-16T20:55:27.430Z,55.69
2023-04-16T20:57:56.373Z,57.27
2023-04-16T21:00:22.847Z,56.79
2023-04-16T21:02:51.590Z,56.74
2023-04-16T21:05:18.593Z,55.54
2023-04-16T21:07:45.481Z,55.66
2023-04-16T21:10:11.999Z,56.53
2023-04-16T21:12:38.642Z,55.12
2023-04-16T21:15:05.265Z,53.71
2023-04-16T21:17:31.879Z,54.20
2023-04-16T21:19:58.522Z,52.93
2023-04-16T21:22:25.095Z,53.31
2023-04-16T21:24:51.665Z,55.51
2023-04-16T21:27:18.186Z,54.64
2023-04-16T21:29:44.987Z,54.46
2023-04-16T21:32:11.660Z,54.47
2023-04-16T21:34:42.331Z,57.33
2023-04-16T21:37:08.928Z,56.58
2023-04-16T21:39:35.695Z,56.98
2023-04-16T21:42:02.481Z,60.06
2023-04-16T21:44:29.069Z,60.18
2023-04-16T21:46:55.891Z,59.44
2023-04-16T21:49:22.448Z,60.52
2023-04-16T21:51:49.253Z,60.54
2023-04-16T21:54:16.018Z,57.65
2023-04-16T21:56:42.606Z,56.18
2023-04-16T21:59:09.104Z,55.68
2023-04-16T22:01:35.842Z,54.98
2023-04-16T22:04:02.432Z,56.72
2023-04-16T22:06:29.263Z,55.17
2023-04-16T22:08:56.723Z,57.06
2023-04-16T22:11:23.482Z,55.81
2023-04-16T22:13:49.952Z,58.57
2023-04-16T22:16:17.513Z,59.33
2023-04-16T22:18:44.340Z,58.71
2023-04-16T22:21:11.186Z,59.87
2023-04-16T22:23:37.810Z,61.04
2023-04-16T22:26:04.361Z,59.97
2023-04-16T22:28:31.166Z,60.02
2023-04-16T22:30:57.714Z,60.03
2023-04-16T22:33:24.443Z,61.12
2023-04-16T22:35:52.007Z,59.21
2023-04-16T22:38:18.581Z,58.71
2023-04-16T22:40:45.184Z,59.75
2023-04-16T22:43:14.748Z,61.07
2023-04-16T22:45:41.557Z,59.60
2023-04-16T22:48:08.179Z,59.31
2023-04-16T22:50:35.022Z,59.40
2023-04-16T22:53:01.805Z,58.44
2023-04-16T22:55:30.883Z,59.83
2023-04-16T22:57:59.863Z,60.07
2023-04-16T23:00:26.409Z,61.41
2023-04-16T23:02:54.409Z,63.09
2023-04-16T23:05:21.206Z,63.00
2023-04-16T23:07:47.969Z,59.50
2023-04-16T23:10:15.862Z,62.00
2023-04-16T23:12:42.394Z,62.48
2023-04-16T23:15:08.955Z,62.88
2023-04-16T23:17:35.556Z,61.07
2023-04-16T23:20:02.654Z,58.78
2023-04-16T23:22:29.664Z,59.09
2023-04-16T23:24:56.472Z,58.52
2023-04-16T23:27:23.483Z,62.33
2023-04-16T23:29:50.019Z,63.32
2023-04-16T23:32:16.643Z,63.13
2023-04-16T23:34:43.333Z,62.87
2023-04-16T23:37:10.952Z,62.37
2023-04-16T23:39:37.394Z,61.26
2023-04-16T23:42:04.269Z,63.30
2023-04-16T23:44:30.753Z,62.85
2023-04-16T23:46:57.525Z,62.13
2023-04-16T23:49:24.317Z,59.08
2023-04-16T23:51:51.039Z,61.66
2023-04-16T23:54:18.628Z,61.04
2023-04-16T23:56:45.233Z,60.82
2023-04-16T23:59:12.056Z,59.66
